createdAt,value
2023-05-19T04:36:14.148Z,12.45
2023-05-19T04:38:54.913Z,9.47
2023-05-19T04:41:29.953Z,5.07
2023-05-19T04:44:05.096Z,3.80
2023-05-19T04:46:40.483Z,3.30
2023-05-19T04:49:15.177Z,2.63
2023-05-19T04:51:53.282Z,2.17
2023-05-19T04:54:29.909Z,1.98
2023-05-19T04:57:04.766Z,1.80
2023-05-19T04:59:40.028Z,1.80
2023-05-19T05:02:14.885Z,1.73
2023-05-19T05:04:50.010Z,2.17
2023-05-19T05:07:25.973Z,1.80
2023-05-19T05:10:01.359Z,2.87
2023-05-19T05:12:36.498Z,35.20
2023-05-19T05:15:12.648Z,8.00
2023-05-19T05:17:47.736Z,1.60
2023-05-19T05:20:23.434Z,36.93
2023-05-19T05:23:00.068Z,1.80
2023-05-19T05:25:35.935Z,1.77
2023-05-19T05:28:10.881Z,1.80
2023-05-19T05:30:46.543Z,1.73
2023-05-19T05:33:22.364Z,1.60
2023-05-19T05:35:57.472Z,1.20
2023-05-19T05:38:33.906Z,1.60
2023-05-19T05:41:08.619Z,1.60
2023-05-19T05:43:43.998Z,2.60
2023-05-19T05:46:18.801Z,1.67
2023-05-19T05:48:54.044Z,1.60
2023-05-19T05:51:29.547Z,1.70
2023-05-19T05:54:08.504Z,1.83
2023-05-19T05:56:43.938Z,2.13
2023-05-19T05:59:18.494Z,2.10
2023-05-19T06:02:59.650Z,2.55
2023-05-19T06:05:34.917Z,2.50
2023-05-19T06:08:09.334Z,4.93
2023-05-19T06:10:46.460Z,3.57
2023-05-19T06:13:24.225Z,8.60
2023-05-19T06:16:00.527Z,35.20
2023-05-19T06:18:38.114Z,3.90
2023-05-19T06:21:13.542Z,5.63
2023-05-19T06:23:48.406Z,3.60
2023-05-19T06:26:23.068Z,3.23
2023-05-19T06:28:57.664Z,2.97
2023-05-19T06:31:33.818Z,2.97
2023-05-19T06:34:12.601Z,4.33
2023-05-19T06:36:47.416Z,2.83
2023-05-19T06:39:22.018Z,3.43
2023-05-19T06:41:56.905Z,2.23
2023-05-19T06:44:32.166Z,2.63
2023-05-19T06:47:07.015Z,1.90
2023-05-19T06:49:43.236Z,2.10
2023-05-19T06:52:18.160Z,2.13
2023-05-19T06:54:52.573Z,2.45
2023-05-19T06:57:27.226Z,2.08
2023-05-19T07:00:01.820Z,1.80
2023-05-19T07:02:36.703Z,2.80
2023-05-19T07:05:12.776Z,3.77
2023-05-19T07:07:47.789Z,6.53
2023-05-19T07:10:23.225Z,3.67
2023-05-19T07:12:58.675Z,7.85
2023-05-19T07:15:33.874Z,4.12
2023-05-19T07:18:08.635Z,4.18
2023-05-19T07:20:44.572Z,2.95
2023-05-19T07:23:19.161Z,6.90
2023-05-19T07:25:57.354Z,5.50
2023-05-19T07:28:32.008Z,7.53
2023-05-19T07:31:06.793Z,2.40
2023-05-19T07:33:42.564Z,2.97
2023-05-19T07:36:18.352Z,2.33
2023-05-19T07:38:53.223Z,3.67
2023-05-19T07:41:27.667Z,2.90
2023-05-19T07:44:07.742Z,2.70
2023-05-19T07:46:42.375Z,5.47
2023-05-19T07:49:17.044Z,4.97
2023-05-19T07:51:52.894Z,2.58
2023-05-19T07:54:27.676Z,44.50
2023-05-19T07:57:01.974Z,2.75
2023-05-19T07:59:36.806Z,2.40
2023-05-19T08:02:11.232Z,2.58
2023-05-19T08:04:46.054Z,2.90
2023-05-19T08:07:21.886Z,2.80
2023-05-19T08:09:56.590Z,3.33
2023-05-19T08:12:30.939Z,2.15
2023-05-19T08:15:06.434Z,2.60
2023-05-19T08:17:40.973Z,2.30
2023-05-19T08:20:15.728Z,2.08
2023-05-19T08:22:51.725Z,2.03
2023-05-19T08:25:26.418Z,1.83
2023-05-19T08:28:01.273Z,3.75
2023-05-19T08:30:36.371Z,2.08
2023-05-19T08:33:10.942Z,3.47
2023-05-19T08:35:45.638Z,1.92
2023-05-19T08:38:21.406Z,1.92
2023-05-19T08:40:58.214Z,3.20
2023-05-19T08:43:32.701Z,1.60
2023-05-19T08:46:08.442Z,1.75
2023-05-19T08:48:45.518Z,3.05
2023-05-19T08:51:28.843Z,1.65
2023-05-19T08:54:18.149Z,1.52
2023-05-19T08:56:52.953Z,5.28
2023-05-19T08:59:27.906Z,1.55
2023-05-19T09:02:02.709Z,1.40
2023-05-19T09:04:37.578Z,2.12
2023-05-19T09:07:12.820Z,2.90
2023-05-19T09:09:48.646Z,1.60
2023-05-19T09:12:23.871Z,1.55
2023-05-19T09:14:59.439Z,1.62
2023-05-19T09:17:35.384Z,1.77
2023-05-19T09:20:12.126Z,3.80
2023-05-19T09:22:48.198Z,3.47
2023-05-19T09:25:24.964Z,2.62
2023-05-19T09:27:59.768Z,1.83
2023-05-19T09:30:34.974Z,2.70
2023-05-19T09:33:10.292Z,3.95
2023-05-19T09:35:48.666Z,4.53
2023-05-19T09:38:25.093Z,2.60
2023-05-19T09:41:02.241Z,5.28
2023-05-19T09:43:37.252Z,1.52
2023-05-19T09:46:14.475Z,1.48
2023-05-19T09:48:49.556Z,1.50
2023-05-19T09:51:23.904Z,1.40
2023-05-19T09:53:59.859Z,1.42
2023-05-19T09:56:37.501Z,2.30
2023-05-19T09:59:13.192Z,8.02
2023-05-19T10:01:48.418Z,7.68
2023-05-19T10:04:24.161Z,3.72
2023-05-19T10:07:00.575Z,1.80
2023-05-19T10:09:37.720Z,2.10
2023-05-19T10:12:14.597Z,1.60
2023-05-19T10:14:50.154Z,1.87
2023-05-19T10:17:26.514Z,1.70
2023-05-19T10:20:02.017Z,2.10
2023-05-19T10:22:36.736Z,2.75
2023-05-19T10:25:14.453Z,7.22
2023-05-19T10:27:55.877Z,1.85
2023-05-19T10:30:34.682Z,7.40
2023-05-19T10:33:13.510Z,1.73
2023-05-19T10:36:01.492Z,1.42
2023-05-19T10:38:44.262Z,2.10
2023-05-19T10:41:29.965Z,1.52
2023-05-19T10:44:19.126Z,1.70
2023-05-19T10:46:55.747Z,1.80
2023-05-19T10:49:39.339Z,2.00
2023-05-19T10:52:26.128Z,1.50
2023-05-19T10:55:02.293Z,5.20
2023-05-19T10:57:37.249Z,3.78
2023-05-19T11:00:29.865Z,1.90
2023-05-19T11:06:19.208Z,2.37
2023-05-19T11:09:00.820Z,1.98
2023-05-19T11:11:46.962Z,1.60
2023-05-19T11:14:23.246Z,1.95
2023-05-19T11:17:01.489Z,2.37
2023-05-19T11:19:37.228Z,2.20
2023-05-19T11:22:12.633Z,2.00
2023-05-19T11:24:50.661Z,5.37
2023-05-19T11:27:27.884Z,1.92
2023-05-19T11:30:05.546Z,1.75
2023-05-19T11:32:43.115Z,2.08
2023-05-19T11:35:21.568Z,1.90
2023-05-19T11:37:56.410Z,2.75
2023-05-19T11:40:32.209Z,1.77
2023-05-19T11:43:06.540Z,1.90
2023-05-19T11:45:41.259Z,2.17
2023-05-19T11:48:17.593Z,2.12
2023-05-19T11:50:52.584Z,1.92
2023-05-19T11:53:33.416Z,2.42
2023-05-19T11:56:09.870Z,1.90
2023-05-19T11:58:44.304Z,1.90
2023-05-19T12:01:19.396Z,2.05
2023-05-19T12:03:55.807Z,4.10
2023-05-19T12:06:31.257Z,2.00
2023-05-19T12:09:06.991Z,4.62
2023-05-19T12:11:41.737Z,1.80
2023-05-19T12:14:16.493Z,2.65
2023-05-19T12:16:50.983Z,2.17
2023-05-19T12:19:28.057Z,2.25
2023-05-19T12:22:04.038Z,5.57
2023-05-19T12:24:39.503Z,3.78
2023-05-19T12:27:18.696Z,5.20
2023-05-19T12:29:54.434Z,1.98
2023-05-19T12:32:29.846Z,3.30
2023-05-19T13:45:57.121Z,2.80
2023-05-19T13:48:32.523Z,2.47
2023-05-19T13:51:06.953Z,3.08
2023-05-19T13:53:42.568Z,2.83
2023-05-19T13:56:16.962Z,3.83
2023-05-19T13:58:51.691Z,2.87
2023-05-19T14:05:41.103Z,2.80
2023-05-19T14:08:16.248Z,3.20
2023-05-19T14:10:52.329Z,8.90
2023-05-19T14:13:33.055Z,3.15
2023-05-19T14:16:10.166Z,3.08
2023-05-19T14:18:46.074Z,2.53
2023-05-19T14:21:21.062Z,2.42
2023-05-19T14:23:55.539Z,2.17
2023-05-19T14:26:30.227Z,2.30
2023-05-19T14:29:05.080Z,2.75
2023-05-19T14:31:39.836Z,2.70
2023-05-19T14:34:18.135Z,2.40
2023-05-19T14:36:52.839Z,5.60
2023-05-19T14:39:27.137Z,2.60
2023-05-19T14:42:01.910Z,3.47
2023-05-19T14:44:37.691Z,4.12
2023-05-19T14:47:12.745Z,3.50
2023-05-19T14:49:49.091Z,2.60
2023-05-19T14:52:24.527Z,3.12
2023-05-19T14:54:58.879Z,2.53
2023-05-19T14:57:33.568Z,2.67
2023-05-19T15:00:09.376Z,3.97
2023-05-19T15:02:46.462Z,5.12
2023-05-19T15:05:23.039Z,4.30
2023-05-19T15:07:57.715Z,5.93
2023-05-19T15:10:32.247Z,3.17
2023-05-19T15:13:07.000Z,8.35
2023-05-19T15:15:41.280Z,4.18
2023-05-19T15:18:18.865Z,4.03
2023-05-19T15:20:54.681Z,2.80
2023-05-19T15:23:29.593Z,11.80
2023-05-19T15:26:04.144Z,2.92
2023-05-19T15:28:38.917Z,2.80
2023-05-19T15:31:13.349Z,2.60
2023-05-19T15:33:48.098Z,3.72
2023-05-19T15:36:24.161Z,2.72
2023-05-19T15:38:58.804Z,3.28
2023-05-19T15:41:33.127Z,2.70
2023-05-19T15:44:08.302Z,5.47
2023-05-19T15:46:42.663Z,3.28
2023-05-19T15:49:18.048Z,3.28
2023-05-19T15:51:53.781Z,2.90
2023-05-19T15:54:28.429Z,2.90
2023-05-19T15:57:02.816Z,3.72
2023-05-19T15:59:37.621Z,2.95
2023-05-19T16:02:12.994Z,3.15
2023-05-19T16:04:47.850Z,3.22
2023-05-19T16:07:23.981Z,3.45
2023-05-19T16:09:58.724Z,2.95
2023-05-19T16:12:33.793Z,5.32
2023-05-19T16:15:09.352Z,2.92
2023-05-19T16:17:43.890Z,4.37
2023-05-19T16:20:18.726Z,3.58
2023-05-19T16:22:55.539Z,3.25
2023-05-19T16:25:30.283Z,3.60
2023-05-19T16:28:04.597Z,3.60
2023-05-19T16:30:39.331Z,4.95
2023-05-19T16:33:13.887Z,3.30
2023-05-19T16:35:48.555Z,3.90
2023-05-19T16:38:24.270Z,5.05
2023-05-19T16:40:59.041Z,4.07
2023-05-19T16:43:34.489Z,3.60
2023-05-19T16:46:10.043Z,5.43
2023-05-19T16:48:44.385Z,3.53
2023-05-19T16:51:19.101Z,5.97
2023-05-19T16:53:54.918Z,35.22
2023-05-19T16:56:29.679Z,7.50
2023-05-19T16:59:04.075Z,5.82
2023-05-19T17:01:39.598Z,3.92
2023-05-19T17:04:14.003Z,4.18
2023-05-19T17:06:48.748Z,8.15
2023-05-19T17:09:26.113Z,8.13
2023-05-19T17:12:00.972Z,3.33
2023-05-19T17:14:35.412Z,3.50
2023-05-19T17:17:10.254Z,2.92
2023-05-19T17:19:44.930Z,18.73
2023-05-19T17:22:19.738Z,6.75
2023-05-19T17:24:55.506Z,4.40
2023-05-19T17:27:30.258Z,4.32
2023-05-19T17:30:05.235Z,4.70
2023-05-19T17:32:40.043Z,6.03
2023-05-19T17:35:14.457Z,5.35
2023-05-19T17:37:49.210Z,6.00
2023-05-19T17:40:25.053Z,5.32
2023-05-19T17:42:59.734Z,5.12
2023-05-19T17:45:34.088Z,6.78
2023-05-19T17:48:08.983Z,8.02
2023-05-19T17:50:43.475Z,5.90
2023-05-19T17:53:18.516Z,6.65
2023-05-19T17:55:58.026Z,6.30
2023-05-19T17:58:33.344Z,39.35
2023-05-19T18:01:08.630Z,74.03
2023-05-19T18:03:49.496Z,125.03
2023-05-19T18:06:28.136Z,87.75
2023-05-19T18:09:08.073Z,44.78
2023-05-19T18:11:43.787Z,27.20
2023-05-19T18:14:18.573Z,24.45
2023-05-19T18:16:52.981Z,22.58
2023-05-19T18:19:27.742Z,15.23
2023-05-19T18:22:02.217Z,22.52
2023-05-19T18:24:36.931Z,30.88
2023-05-19T18:27:12.730Z,36.97
2023-05-19T18:29:47.440Z,33.40
2023-05-19T18:32:21.910Z,27.20
2023-05-19T18:34:56.631Z,23.23
2023-05-19T18:37:30.984Z,21.00
2023-05-19T18:40:06.391Z,24.67
2023-05-19T18:42:43.740Z,22.42
2023-05-19T18:45:18.591Z,21.15
2023-05-19T18:47:53.182Z,23.00
2023-05-19T18:50:27.987Z,19.15
2023-05-19T18:53:02.627Z,17.25
2023-05-19T18:55:38.472Z,15.88
2023-05-19T18:58:14.452Z,15.93
2023-05-19T19:00:49.182Z,16.20
2023-05-19T19:03:23.749Z,23.35
2023-05-19T19:05:59.078Z,34.60
2023-05-19T19:08:33.421Z,52.40
2023-05-19T19:11:11.350Z,41.70
2023-05-19T19:13:51.293Z,39.75
2023-05-19T19:19:00.439Z,33.38
2023-05-19T19:21:35.275Z,41.40
2023-05-19T19:24:09.694Z,37.17
2023-05-19T19:26:44.418Z,35.90
2023-05-19T19:29:22.001Z,42.28
2023-05-19T19:31:57.055Z,42.58
2023-05-19T19:34:31.592Z,40.78
2023-05-19T19:37:06.413Z,66.85
2023-05-19T19:39:41.027Z,56.35
2023-05-19T19:42:15.784Z,49.72
2023-05-19T19:44:55.600Z,48.83
2023-05-19T19:47:30.307Z,35.05
2023-05-19T19:50:05.893Z,25.00
2023-05-19T19:52:40.905Z,21.15
2023-05-19T19:55:15.365Z,25.35
2023-05-19T19:57:51.414Z,18.50
2023-05-19T20:00:27.226Z,24.90
2023-05-19T20:03:05.474Z,25.67
2023-05-19T20:05:40.720Z,28.87
2023-05-19T20:08:16.203Z,19.00
2023-05-19T20:10:50.715Z,16.10
2023-05-19T20:13:25.381Z,12.25
2023-05-19T20:16:01.313Z,8.95
2023-05-19T20:18:35.998Z,7.85
2023-05-19T20:21:10.467Z,7.62
2023-05-19T20:23:45.149Z,7.75
2023-05-19T20:26:20.634Z,6.75
2023-05-19T20:28:55.950Z,7.68
2023-05-19T20:31:31.741Z,6.43
2023-05-19T20:34:06.421Z,7.25
2023-05-19T20:36:41.034Z,6.68
2023-05-19T20:39:15.813Z,8.43
2023-05-19T20:41:50.273Z,6.85
2023-05-19T20:44:24.967Z,5.75
2023-05-19T20:47:00.875Z,9.32
2023-05-19T20:49:35.689Z,6.72
2023-05-19T20:52:10.062Z,9.15
2023-05-19T20:54:45.539Z,11.65
2023-05-19T20:57:19.940Z,6.43
2023-05-19T20:59:54.655Z,9.10
2023-05-19T21:02:30.682Z,27.05
2023-05-19T21:05:05.861Z,8.25
2023-05-19T21:07:40.280Z,31.35
2023-05-19T21:10:15.012Z,5.35
2023-05-19T21:12:49.559Z,6.57
2023-05-19T21:15:24.785Z,4.37
2023-05-19T21:18:00.686Z,4.03
2023-05-19T21:20:35.591Z,4.32
2023-05-19T21:23:10.186Z,4.22
2023-05-19T21:25:45.566Z,5.75
2023-05-19T21:28:19.880Z,3.78
2023-05-19T21:30:54.665Z,11.73
2023-05-19T21:33:30.798Z,5.43
2023-05-19T21:36:06.015Z,3.62
2023-05-19T21:38:40.389Z,4.68
2023-05-19T21:41:15.006Z,4.22
2023-05-19T21:43:49.457Z,4.40
2023-05-19T21:46:24.150Z,3.97
2023-05-19T21:48:59.994Z,4.00
2023-05-19T21:51:35.869Z,3.80
2023-05-19T21:54:10.550Z,4.45
2023-05-19T21:56:45.238Z,4.55
2023-05-19T21:59:23.271Z,3.40
2023-05-19T22:03:03.766Z,4.12
2023-05-19T22:05:39.172Z,7.68
2023-05-19T22:08:13.523Z,3.62
2023-05-19T22:10:51.214Z,3.97
2023-05-19T22:13:25.776Z,4.25
2023-05-19T22:16:00.502Z,8.02
2023-05-19T22:18:36.620Z,4.03
2023-05-19T22:21:11.632Z,5.70
2023-05-19T22:23:46.163Z,4.30
2023-05-19T22:26:21.858Z,5.00
2023-05-19T22:28:56.840Z,4.43
2023-05-19T22:31:31.528Z,6.97
2023-05-19T22:34:07.311Z,4.85
2023-05-19T22:36:44.260Z,16.95
2023-05-19T22:39:18.599Z,25.92
2023-05-19T22:41:53.274Z,67.45
2023-05-19T22:44:27.672Z,4.37
2023-05-19T22:47:02.404Z,4.30
2023-05-19T22:49:38.271Z,5.12
2023-05-19T22:52:13.147Z,6.57
2023-05-19T22:54:47.486Z,4.30
2023-05-19T22:57:22.166Z,4.65
2023-05-19T22:59:56.559Z,4.32
2023-05-19T23:02:31.351Z,4.18
2023-05-19T23:05:07.992Z,4.53
2023-05-19T23:07:42.892Z,5.40
2023-05-19T23:10:17.357Z,5.57
2023-05-19T23:12:51.996Z,3.85
2023-05-19T23:15:26.311Z,3.70
2023-05-19T23:18:01.462Z,4.05
2023-05-19T23:20:37.281Z,4.15
2023-05-19T23:23:11.893Z,8.40
2023-05-19T23:25:46.279Z,4.60
2023-05-19T23:28:20.959Z,3.97
2023-05-19T23:30:55.572Z,4.00
2023-05-19T23:33:30.277Z,4.20
2023-05-19T23:36:09.621Z,3.95
2023-05-19T23:38:44.663Z,9.00
2023-05-19T23:41:19.006Z,4.15
2023-05-19T23:43:53.731Z,4.28
2023-05-19T23:46:28.094Z,4.70
2023-05-19T23:49:02.797Z,4.32
2023-05-19T23:51:38.617Z,4.87
2023-05-19T23:54:13.214Z,5.87
2023-05-19T23:56:47.776Z,10.23
2023-05-19T23:59:22.469Z,5.30
